createdAt,value
2023-05-31T00:00:46.029Z,11.55
2023-05-31T00:03:50.283Z,11.56
2023-05-31T00:06:52.419Z,11.54
2023-05-31T00:09:54.526Z,11.52
2023-05-31T00:12:58.265Z,11.50
2023-05-31T00:16:00.231Z,11.50
2023-05-31T00:19:02.563Z,11.52
2023-05-31T00:22:04.907Z,11.54
2023-05-31T00:25:07.117Z,11.56
2023-05-31T00:28:10.970Z,11.59
2023-05-31T00:31:14.117Z,11.57
2023-05-31T00:34:16.117Z,11.55
2023-05-31T00:37:21.408Z,11.53
2023-05-31T00:40:24.736Z,11.57
2023-05-31T00:43:29.665Z,11.59
2023-05-31T00:46:32.850Z,11.61
2023-05-31T00:49:35.521Z,11.61
2023-05-31T00:52:38.141Z,11.59
2023-05-31T00:55:41.229Z,11.58
2023-05-31T00:58:46.412Z,11.58
2023-05-31T01:01:48.490Z,11.58
2023-05-31T01:04:51.692Z,11.56
2023-05-31T01:07:54.089Z,11.51
2023-05-31T01:10:58.787Z,11.48
2023-05-31T01:14:05.799Z,11.48
2023-05-31T01:17:14.904Z,11.48
2023-05-31T01:20:19.150Z,11.47
2023-05-31T01:23:43.236Z,11.41
2023-05-31T01:26:48.287Z,11.36
2023-05-31T01:29:51.618Z,11.29
2023-05-31T01:32:56.636Z,11.26
2023-05-31T01:35:58.711Z,11.24
2023-05-31T01:39:02.040Z,11.26
2023-05-31T01:42:09.816Z,11.25
2023-05-31T01:45:13.189Z,11.22
2023-05-31T01:48:15.292Z,11.22
2023-05-31T01:51:18.404Z,11.22
2023-05-31T01:54:20.533Z,11.20
2023-05-31T01:57:25.264Z,11.22
2023-05-31T02:00:27.848Z,11.22
2023-05-31T02:03:30.483Z,11.20
2023-05-31T02:06:36.503Z,11.16
2023-05-31T02:09:38.951Z,11.13
2023-05-31T02:12:43.608Z,11.14
2023-05-31T02:15:46.723Z,11.14
2023-05-31T02:18:49.168Z,11.13
2023-05-31T02:21:51.693Z,11.14
2023-05-31T02:24:53.958Z,11.14
2023-05-31T02:27:58.564Z,11.13
2023-05-31T02:31:02.145Z,11.10
2023-05-31T02:34:05.788Z,11.05
2023-05-31T02:37:07.948Z,11.06
2023-05-31T02:40:10.216Z,11.03
2023-05-31T02:43:13.922Z,11.01
2023-05-31T02:46:16.099Z,10.98
2023-05-31T02:49:19.093Z,10.91
2023-05-31T02:52:22.183Z,10.84
2023-05-31T02:55:48.242Z,10.81
2023-05-31T02:59:01.043Z,10.72
2023-05-31T03:02:23.130Z,10.68
2023-05-31T03:05:51.681Z,10.59
2023-05-31T03:08:54.566Z,10.53
2023-05-31T03:11:57.145Z,10.43
2023-05-31T03:15:01.305Z,10.38
2023-05-31T03:18:04.403Z,10.32
2023-05-31T03:21:07.173Z,10.35
2023-05-31T03:24:09.269Z,10.32
2023-05-31T03:27:12.397Z,10.28
2023-05-31T03:30:16.273Z,10.26
2023-05-31T03:33:25.965Z,10.23
2023-05-31T03:36:29.380Z,10.14
2023-05-31T03:39:35.452Z,10.11
2023-05-31T03:42:39.184Z,10.08
2023-05-31T03:45:44.191Z,10.07
2023-05-31T03:48:46.627Z,10.10
2023-05-31T03:51:48.613Z,10.14
2023-05-31T03:54:51.070Z,10.21
2023-05-31T03:57:53.116Z,10.29
2023-05-31T04:00:57.568Z,10.35
2023-05-31T04:04:02.641Z,10.36
2023-05-31T04:07:07.026Z,10.31
2023-05-31T04:10:09.812Z,10.33
2023-05-31T04:13:11.976Z,10.40
2023-05-31T04:16:16.715Z,10.49
2023-05-31T04:19:19.028Z,10.59
2023-05-31T04:22:21.932Z,10.57
2023-05-31T04:25:24.262Z,10.56
2023-05-31T04:28:27.255Z,10.67
2023-05-31T04:31:49.305Z,10.71
2023-05-31T04:34:59.273Z,10.76
2023-05-31T04:38:06.054Z,10.84
2023-05-31T04:41:08.447Z,10.87
2023-05-31T04:44:10.906Z,10.90
2023-05-31T04:47:16.777Z,10.92
2023-05-31T04:50:18.997Z,10.94
2023-05-31T04:53:21.468Z,10.98
2023-05-31T04:56:23.657Z,11.05
2023-05-31T04:59:29.669Z,11.13
2023-05-31T05:02:33.158Z,11.20
2023-05-31T05:05:36.862Z,11.29
2023-05-31T05:08:39.054Z,11.35
2023-05-31T05:11:41.632Z,11.43
2023-05-31T05:14:43.876Z,11.52
2023-05-31T05:17:50.152Z,11.61
2023-05-31T05:20:52.387Z,11.74
2023-05-31T05:23:59.553Z,11.84
2023-05-31T05:27:03.726Z,11.91
2023-05-31T05:30:06.578Z,12.00
2023-05-31T05:33:10.025Z,12.09
2023-05-31T05:36:12.493Z,12.12
2023-05-31T05:39:20.710Z,12.15
2023-05-31T05:42:25.033Z,12.27
2023-05-31T05:45:28.492Z,12.39
2023-05-31T05:48:33.171Z,12.47
2023-05-31T05:51:36.822Z,12.57
2023-05-31T05:54:43.288Z,12.65
2023-05-31T05:57:48.171Z,12.72
2023-05-31T06:01:08.907Z,12.78
2023-05-31T06:04:15.197Z,12.87
2023-05-31T06:07:18.704Z,12.94
2023-05-31T06:10:21.079Z,13.06
2023-05-31T06:13:23.661Z,13.17
2023-05-31T06:16:26.115Z,13.22
2023-05-31T06:19:32.216Z,13.27
2023-05-31T06:22:34.315Z,13.31
2023-05-31T06:25:37.255Z,13.37
2023-05-31T06:28:39.411Z,13.45
2023-05-31T06:31:50.066Z,13.58
2023-05-31T06:34:54.421Z,13.63
2023-05-31T06:37:59.096Z,13.69
2023-05-31T06:41:01.703Z,13.74
2023-05-31T06:44:04.250Z,13.83
2023-05-31T06:47:16.408Z,13.96
2023-05-31T06:50:42.604Z,14.07
2023-05-31T06:54:04.770Z,14.22
2023-05-31T06:57:09.139Z,14.31
2023-05-31T07:00:11.790Z,14.38
2023-05-31T07:03:16.652Z,14.39
2023-05-31T07:06:22.419Z,14.48
2023-05-31T07:09:27.006Z,14.56
2023-05-31T07:12:31.935Z,14.60
2023-05-31T07:15:34.495Z,14.67
2023-05-31T07:18:36.710Z,14.74
2023-05-31T07:21:40.243Z,14.72
2023-05-31T07:24:42.461Z,14.74
2023-05-31T07:27:44.657Z,14.83
2023-05-31T07:30:46.879Z,14.98
2023-05-31T07:33:51.949Z,14.98
2023-05-31T07:36:56.558Z,15.11
2023-05-31T07:39:58.756Z,15.27
2023-05-31T07:43:00.803Z,15.32
2023-05-31T07:46:02.870Z,15.42
2023-05-31T07:49:05.330Z,15.54
2023-05-31T07:52:09.212Z,15.59
2023-05-31T07:55:11.488Z,15.65
2023-05-31T07:58:14.111Z,15.83
2023-05-31T08:01:17.166Z,15.98
2023-05-31T08:04:19.205Z,16.03
2023-05-31T08:07:22.753Z,16.02
2023-05-31T08:10:24.829Z,16.15
2023-05-31T08:13:27.017Z,16.20
2023-05-31T08:16:29.556Z,16.25
2023-05-31T08:19:32.694Z,16.36
2023-05-31T08:22:36.160Z,16.51
2023-05-31T08:25:41.373Z,16.64
2023-05-31T08:28:43.718Z,16.81
2023-05-31T08:31:45.693Z,16.71
2023-05-31T08:34:47.652Z,16.90
2023-05-31T08:37:51.533Z,16.92
2023-05-31T08:40:53.473Z,17.10
2023-05-31T08:43:55.657Z,17.20
2023-05-31T08:46:59.187Z,17.29
2023-05-31T08:50:01.992Z,17.29
2023-05-31T08:53:07.032Z,17.42
2023-05-31T08:56:10.028Z,17.57
2023-05-31T08:59:17.648Z,17.60
2023-05-31T09:02:21.763Z,17.72
2023-05-31T09:05:23.916Z,17.94
2023-05-31T09:08:28.571Z,17.97
2023-05-31T09:11:31.048Z,17.98
2023-05-31T09:14:33.253Z,18.04
2023-05-31T09:17:35.565Z,18.05
2023-05-31T09:20:37.645Z,18.11
2023-05-31T09:23:52.263Z,18.17
2023-05-31T09:26:58.841Z,18.30
2023-05-31T09:30:04.651Z,18.42
2023-05-31T09:33:07.605Z,18.34
2023-05-31T09:36:09.789Z,18.25
2023-05-31T09:39:14.330Z,18.39
2023-05-31T09:42:16.370Z,18.55
2023-05-31T09:45:18.862Z,18.49
2023-05-31T09:48:21.104Z,18.51
2023-05-31T09:51:23.190Z,18.51
2023-05-31T09:54:28.948Z,18.68
2023-05-31T09:57:33.187Z,18.70
2023-05-31T10:00:35.629Z,18.91
2023-05-31T10:03:38.315Z,19.00
2023-05-31T10:06:40.616Z,18.82
2023-05-31T10:09:44.107Z,19.01
2023-05-31T10:12:51.121Z,19.24
2023-05-31T10:15:55.031Z,19.40
2023-05-31T10:19:00.049Z,19.26
2023-05-31T10:22:04.589Z,19.42
2023-05-31T10:25:12.080Z,19.51
2023-05-31T10:28:16.737Z,19.73
2023-05-31T10:31:30.097Z,19.77
2023-05-31T10:34:32.514Z,19.56
2023-05-31T10:37:34.820Z,19.72
2023-05-31T10:40:43.577Z,19.83
2023-05-31T10:43:48.452Z,19.85
2023-05-31T10:46:54.077Z,19.87
2023-05-31T10:49:57.060Z,19.85
2023-05-31T10:53:12.252Z,19.77
2023-05-31T10:56:16.172Z,19.89
2023-05-31T10:59:18.547Z,20.02
2023-05-31T11:02:21.193Z,20.13
2023-05-31T11:05:25.376Z,20.13
2023-05-31T11:08:30.223Z,20.14
2023-05-31T11:11:47.799Z,20.26
2023-05-31T11:15:01.876Z,20.29
2023-05-31T11:18:08.248Z,20.54
2023-05-31T11:21:12.381Z,20.27
2023-05-31T11:24:26.090Z,20.25
2023-05-31T11:27:39.808Z,20.17
2023-05-31T11:30:47.511Z,20.49
2023-05-31T11:33:58.504Z,20.44
2023-05-31T11:37:03.495Z,20.87
2023-05-31T11:40:12.208Z,20.99
2023-05-31T11:43:20.528Z,21.21
2023-05-31T11:46:23.164Z,21.39
2023-05-31T11:49:26.650Z,21.47
2023-05-31T11:52:29.731Z,21.48
2023-05-31T11:55:34.039Z,21.48
2023-05-31T11:58:37.938Z,21.46
2023-05-31T12:01:43.205Z,21.26
2023-05-31T12:04:46.039Z,20.87
2023-05-31T12:07:48.460Z,20.76
2023-05-31T12:10:50.747Z,20.52
2023-05-31T12:13:56.813Z,20.69
2023-05-31T12:17:01.538Z,20.92
2023-05-31T12:20:06.560Z,21.09
2023-05-31T12:23:12.094Z,21.19
2023-05-31T12:26:15.066Z,21.55
2023-05-31T12:29:19.367Z,21.47
2023-05-31T12:32:22.368Z,21.76
2023-05-31T12:35:24.510Z,21.52
2023-05-31T12:38:31.310Z,21.44
2023-05-31T12:41:34.712Z,21.28
2023-05-31T12:44:40.299Z,21.24
2023-05-31T12:47:42.394Z,21.48
2023-05-31T12:50:47.134Z,21.68
2023-05-31T12:53:49.667Z,21.85
2023-05-31T12:56:52.283Z,21.95
2023-05-31T13:00:03.613Z,21.75
2023-05-31T13:03:08.105Z,21.49
2023-05-31T13:06:10.284Z,21.50
2023-05-31T13:09:13.760Z,21.69
2023-05-31T13:12:16.209Z,21.58
2023-05-31T13:15:19.654Z,21.49
2023-05-31T13:18:22.732Z,21.41
2023-05-31T13:21:24.854Z,21.66
2023-05-31T13:24:26.971Z,21.50
2023-05-31T13:27:28.998Z,21.48
2023-05-31T13:30:32.732Z,21.63
2023-05-31T13:33:34.803Z,21.85
2023-05-31T13:36:38.358Z,21.94
2023-05-31T13:39:40.358Z,22.10
2023-05-31T13:42:42.971Z,22.03
2023-05-31T13:45:49.382Z,21.87
2023-05-31T13:48:53.162Z,21.82
2023-05-31T13:51:55.379Z,21.48
2023-05-31T13:54:57.752Z,21.49
2023-05-31T13:57:59.725Z,21.49
2023-05-31T14:01:03.477Z,21.39
2023-05-31T14:04:06.536Z,21.49
2023-05-31T14:07:08.617Z,21.55
2023-05-31T14:10:11.206Z,21.67
2023-05-31T14:13:16.426Z,21.96
2023-05-31T14:16:23.684Z,21.95
2023-05-31T14:19:36.030Z,22.04
2023-05-31T14:22:38.253Z,22.30
2023-05-31T14:25:40.576Z,22.19
2023-05-31T14:28:42.653Z,22.18
2023-05-31T14:31:48.653Z,22.56
2023-05-31T14:34:51.846Z,22.81
2023-05-31T14:37:58.262Z,22.92
2023-05-31T14:41:16.617Z,22.95
2023-05-31T14:44:18.889Z,22.96
2023-05-31T14:47:22.757Z,22.59
2023-05-31T14:50:30.034Z,22.69
2023-05-31T14:53:34.202Z,22.53
2023-05-31T14:56:36.762Z,22.17
2023-05-31T14:59:38.589Z,22.11
2023-05-31T15:05:44.229Z,22.32
2023-05-31T15:08:46.465Z,22.36
2023-05-31T15:11:48.665Z,22.49
2023-05-31T15:14:50.850Z,22.28
2023-05-31T15:17:53.318Z,22.42
2023-05-31T15:20:56.848Z,22.52
2023-05-31T15:23:59.044Z,22.50
2023-05-31T15:27:01.127Z,22.23
2023-05-31T15:30:04.956Z,22.10
2023-05-31T15:33:07.113Z,21.74
2023-05-31T15:36:13.233Z,21.69
2023-05-31T15:39:17.008Z,21.87
2023-05-31T15:42:19.548Z,21.82
2023-05-31T15:45:23.433Z,22.02
2023-05-31T15:48:26.434Z,22.19
2023-05-31T15:51:30.374Z,22.17
2023-05-31T15:54:32.733Z,22.16
2023-05-31T15:57:38.666Z,22.27
2023-05-31T16:00:41.516Z,22.14
2023-05-31T16:03:44.505Z,22.24
2023-05-31T16:06:48.243Z,22.03
2023-05-31T16:09:50.383Z,22.08
2023-05-31T16:12:52.485Z,22.06
2023-05-31T16:15:54.794Z,21.99
2023-05-31T16:18:59.959Z,22.03
2023-05-31T16:22:04.172Z,21.86
2023-05-31T16:25:08.881Z,21.63
2023-05-31T16:28:15.330Z,21.57
2023-05-31T16:31:19.324Z,21.49
2023-05-31T16:34:22.964Z,21.45
2023-05-31T16:37:26.705Z,21.46
2023-05-31T16:40:30.033Z,21.35
2023-05-31T16:43:32.132Z,21.24
2023-05-31T16:46:36.124Z,21.23
2023-05-31T16:49:38.480Z,21.22
2023-05-31T16:52:42.756Z,21.19
2023-05-31T16:55:45.702Z,21.14
2023-05-31T16:58:47.861Z,21.14
2023-05-31T17:01:50.086Z,21.10
2023-05-31T17:04:52.501Z,21.09
2023-05-31T17:07:56.463Z,21.09
2023-05-31T17:11:02.764Z,21.10
2023-05-31T17:14:05.050Z,21.06
2023-05-31T17:17:07.308Z,21.06
2023-05-31T17:20:11.498Z,21.04
2023-05-31T17:23:16.633Z,20.99
2023-05-31T17:26:21.038Z,20.93
2023-05-31T17:29:23.566Z,20.85
2023-05-31T17:32:25.742Z,20.77
2023-05-31T17:35:28.088Z,20.75
2023-05-31T17:38:32.043Z,20.71
2023-05-31T17:41:34.503Z,20.70
2023-05-31T17:44:37.180Z,20.65
2023-05-31T17:47:39.338Z,20.62
2023-05-31T17:50:41.427Z,20.58
2023-05-31T17:53:47.072Z,20.58
2023-05-31T17:56:54.849Z,20.54
2023-05-31T17:59:58.350Z,20.52
2023-05-31T18:03:00.631Z,20.50
2023-05-31T18:06:03.764Z,20.45
2023-05-31T18:09:07.539Z,20.39
2023-05-31T18:12:10.118Z,20.32
2023-05-31T18:15:13.412Z,20.28
2023-05-31T18:18:18.520Z,20.21
2023-05-31T18:21:23.414Z,20.15
2023-05-31T18:24:27.358Z,20.12
2023-05-31T18:27:29.585Z,20.04
2023-05-31T18:30:34.933Z,20.00
2023-05-31T18:33:37.028Z,19.97
2023-05-31T18:36:39.365Z,19.93
2023-05-31T18:39:46.984Z,19.86
2023-05-31T18:42:49.940Z,19.79
2023-05-31T18:45:52.136Z,19.75
2023-05-31T18:48:55.955Z,19.69
2023-05-31T18:52:01.972Z,19.62
2023-05-31T18:55:06.256Z,19.58
2023-05-31T18:58:08.280Z,19.53
2023-05-31T19:01:10.644Z,19.47
2023-05-31T19:04:13.187Z,19.33
2023-05-31T19:07:16.440Z,19.20
2023-05-31T19:10:21.888Z,19.11
2023-05-31T19:13:27.029Z,18.98
2023-05-31T19:16:29.155Z,18.88
2023-05-31T19:19:32.188Z,18.78
2023-05-31T19:22:47.658Z,18.71
2023-05-31T19:25:51.899Z,18.62
2023-05-31T19:28:54.071Z,18.53
2023-05-31T19:31:56.177Z,18.47
2023-05-31T19:34:59.485Z,18.35
2023-05-31T19:38:06.757Z,18.30
2023-05-31T19:41:10.310Z,18.27
2023-05-31T19:44:13.914Z,18.21
2023-05-31T19:47:16.255Z,18.11
2023-05-31T19:50:21.498Z,18.01
2023-05-31T19:53:23.939Z,17.86
2023-05-31T19:56:27.713Z,17.71
2023-05-31T19:59:32.202Z,17.58
2023-05-31T20:02:34.796Z,17.46
2023-05-31T20:05:36.760Z,17.34
2023-05-31T20:08:38.988Z,17.22
2023-05-31T20:11:42.289Z,17.08
2023-05-31T20:14:44.711Z,16.96
2023-05-31T20:17:47.277Z,16.84
2023-05-31T20:20:52.147Z,16.73
2023-05-31T20:23:54.859Z,16.65
2023-05-31T20:26:58.430Z,16.58
2023-05-31T20:30:00.672Z,16.47
2023-05-31T20:33:02.872Z,16.35
2023-05-31T20:36:05.418Z,16.25
2023-05-31T20:39:07.519Z,16.20
2023-05-31T20:42:11.691Z,16.15
2023-05-31T20:45:14.025Z,16.13
2023-05-31T20:48:16.229Z,16.09
2023-05-31T20:51:20.884Z,16.09
2023-05-31T20:54:23.162Z,16.03
2023-05-31T20:57:27.164Z,16.06
2023-05-31T21:00:29.768Z,16.00
2023-05-31T21:03:32.071Z,15.87
2023-05-31T21:06:34.714Z,15.86
2023-05-31T21:09:37.122Z,15.84
2023-05-31T21:12:42.070Z,15.71
2023-05-31T21:15:44.480Z,15.66
2023-05-31T21:18:47.179Z,15.65
2023-05-31T21:21:49.340Z,15.53
2023-05-31T21:24:55.001Z,15.47
2023-05-31T21:27:59.214Z,15.45
2023-05-31T21:31:02.131Z,15.38
2023-05-31T21:34:04.325Z,15.36
2023-05-31T21:37:07.163Z,15.28
2023-05-31T21:40:13.396Z,15.08
2023-05-31T21:43:18.581Z,15.02
2023-05-31T21:46:23.254Z,14.97
2023-05-31T21:49:25.522Z,14.97
2023-05-31T21:52:32.316Z,14.96
2023-05-31T21:55:38.139Z,14.96
2023-05-31T21:58:41.783Z,14.91
2023-05-31T22:01:44.950Z,14.81
2023-05-31T22:04:47.300Z,14.76
2023-05-31T22:07:50.758Z,14.67
2023-05-31T22:10:52.865Z,14.60
2023-05-31T22:13:56.327Z,14.41
2023-05-31T22:17:03.519Z,14.30
2023-05-31T22:20:10.789Z,14.20
2023-05-31T22:23:12.896Z,14.16
2023-05-31T22:26:17.937Z,13.93
2023-05-31T22:29:21.632Z,13.79
2023-05-31T22:32:23.820Z,13.78
2023-05-31T22:35:26.551Z,13.74
2023-05-31T22:38:28.642Z,13.69
2023-05-31T22:41:30.791Z,13.63
2023-05-31T22:44:34.772Z,13.67
2023-05-31T22:47:37.264Z,13.68
2023-05-31T22:50:39.292Z,13.55
2023-05-31T22:53:41.417Z,13.34
2023-05-31T22:56:43.365Z,13.23
2023-05-31T22:59:48.713Z,13.22
2023-05-31T23:02:51.633Z,13.22
2023-05-31T23:05:58.272Z,13.18
2023-05-31T23:09:02.722Z,13.09
2023-05-31T23:12:07.568Z,12.98
2023-05-31T23:15:12.164Z,12.92
2023-05-31T23:18:15.840Z,12.90
2023-05-31T23:21:18.158Z,12.87
2023-05-31T23:24:20.074Z,12.73
2023-05-31T23:27:24.549Z,12.59
2023-05-31T23:30:28.360Z,12.64
2023-05-31T23:33:30.762Z,12.53
2023-05-31T23:36:32.920Z,12.26
2023-05-31T23:39:35.188Z,12.10
2023-05-31T23:42:38.257Z,12.02
2023-05-31T23:45:41.803Z,11.98
2023-05-31T23:48:43.903Z,11.87
2023-05-31T23:51:46.500Z,11.75
2023-05-31T23:54:48.712Z,11.68
2023-05-31T23:57:50.817Z,11.56
